Callington, United Kingdom
Current Conditions -  °F | °C
As of 2:50 PM on Sunday 21 Dec 2014 (Local Time) from EGHQ Reporting Station
Drizzle Drizzle  
Wind Chill: 50°   Ceiling: 700
Heat Index: 50°   Visibility: 6mi
Dew Point: 48°   Wind: 20mph
Humidity: 94%   Direction: 230°SW
Pressure: 30.33"   Gusts: NA
Location:  50.5°N, 4.31°W
Report Text: EGHQ 211450Z 23017KT 9999 -DZ OVC007 10/09 Q1027
Loading
Personal Weather Stations






























Interactive Weather Map New forecast layout! Learn more

10-Day Weather Forecast

Advertisements
Track Severe Weather on mobile